createdAt,value
2023-04-29T00:03:33.544Z,11.30
2023-04-29T00:07:45.715Z,11.30
2023-04-29T00:11:55.824Z,11.20
2023-04-29T00:16:06.698Z,11.20
2023-04-29T00:20:17.395Z,11.20
2023-04-29T00:24:29.190Z,11.20
2023-04-29T00:28:39.819Z,11.10
2023-04-29T00:32:50.423Z,11.10
2023-04-29T00:37:00.663Z,11.00
2023-04-29T00:41:12.249Z,11.00
2023-04-29T00:45:22.334Z,10.90
2023-04-29T00:49:32.556Z,10.90
2023-04-29T00:53:42.532Z,10.90
2023-04-29T00:57:55.363Z,10.90
2023-04-29T01:02:06.864Z,10.90
2023-04-29T01:06:26.622Z,10.90
2023-04-29T01:10:44.139Z,10.90
2023-04-29T01:15:04.532Z,10.80
2023-04-29T01:19:25.173Z,10.90
2023-04-29T01:23:36.389Z,10.80
2023-04-29T01:27:56.020Z,10.60
2023-04-29T01:32:09.906Z,10.60
2023-04-29T01:36:31.924Z,10.60
2023-04-29T01:40:57.659Z,10.60
2023-04-29T01:45:11.534Z,10.50
2023-04-29T01:49:24.772Z,10.30
2023-04-29T01:53:35.246Z,10.20
2023-04-29T01:57:47.423Z,10.10
2023-04-29T02:01:59.704Z,10.20
2023-04-29T02:06:10.040Z,10.30
2023-04-29T02:10:19.038Z,10.40
2023-04-29T02:14:29.650Z,10.40
2023-04-29T02:18:38.939Z,10.50
2023-04-29T02:22:47.968Z,10.50
2023-04-29T02:26:57.403Z,10.60
2023-04-29T02:31:08.124Z,10.60
2023-04-29T02:35:17.227Z,10.70
2023-04-29T02:39:26.512Z,10.70
2023-04-29T02:43:35.622Z,10.80
2023-04-29T02:47:46.136Z,10.90
2023-04-29T02:51:55.247Z,10.90
2023-04-29T02:56:04.221Z,11.00
2023-04-29T03:00:13.981Z,11.00
2023-04-29T03:04:25.076Z,11.00
2023-04-29T03:08:34.318Z,11.00
2023-04-29T03:12:43.356Z,11.10
2023-04-29T03:16:52.542Z,11.00
2023-04-29T03:21:04.740Z,11.00
2023-04-29T03:25:13.998Z,11.00
2023-04-29T03:29:23.017Z,11.00
2023-04-29T03:33:32.072Z,11.00
2023-04-29T03:37:44.797Z,11.00
2023-04-29T03:41:53.834Z,11.00
2023-04-29T03:46:02.931Z,11.00
2023-04-29T03:50:12.569Z,11.00
2023-04-29T03:54:23.159Z,11.00
2023-04-29T03:58:32.393Z,11.00
2023-04-29T04:02:41.803Z,11.00
2023-04-29T04:06:52.128Z,11.10
2023-04-29T04:11:04.996Z,11.00
2023-04-29T04:15:14.113Z,11.00
2023-04-29T04:19:23.225Z,11.00
2023-04-29T04:23:32.279Z,11.00
2023-04-29T04:27:42.838Z,11.00
2023-04-29T04:31:51.780Z,11.10
2023-04-29T04:36:00.934Z,11.10
2023-04-29T04:40:12.278Z,11.00
2023-04-29T04:44:22.889Z,11.00
2023-04-29T04:48:31.916Z,11.10
2023-04-29T04:52:40.992Z,11.10
2023-04-29T04:56:52.564Z,11.10
2023-04-29T05:01:03.728Z,11.10
2023-04-29T05:05:12.831Z,11.20
2023-04-29T05:09:21.889Z,11.20
2023-04-29T05:13:30.938Z,11.30
2023-04-29T05:17:41.572Z,11.30
2023-04-29T05:21:51.090Z,11.40
2023-04-29T05:26:00.099Z,11.40
2023-04-29T05:30:10.153Z,11.40
2023-04-29T05:34:20.821Z,11.50
2023-04-29T05:38:30.422Z,11.60
2023-04-29T05:42:39.476Z,11.60
2023-04-29T05:46:49.037Z,11.70
2023-04-29T05:50:59.766Z,11.50
2023-04-29T05:55:09.197Z,11.60
2023-04-29T05:59:18.229Z,11.70
2023-04-29T06:03:27.405Z,11.70
2023-04-29T06:07:38.312Z,11.80
2023-04-29T06:11:47.440Z,11.90
2023-04-29T06:15:57.688Z,12.00
2023-04-29T06:20:08.531Z,12.10
2023-04-29T06:24:19.943Z,12.20
2023-04-29T06:28:30.546Z,12.20
2023-04-29T06:32:40.687Z,12.20
2023-04-29T06:36:54.306Z,12.30
2023-04-29T06:41:05.868Z,12.30
2023-04-29T06:45:16.141Z,12.40
2023-04-29T06:49:25.953Z,12.40
2023-04-29T06:53:35.892Z,12.50
2023-04-29T06:57:47.620Z,12.50
2023-04-29T07:02:00.033Z,12.60
2023-04-29T07:06:15.173Z,12.60
2023-04-29T07:10:27.271Z,12.60
2023-04-29T07:14:46.680Z,12.70
2023-04-29T07:18:59.431Z,12.80
2023-04-29T07:23:17.814Z,12.80
2023-04-29T07:27:29.687Z,12.80
2023-04-29T07:31:49.225Z,12.90
2023-04-29T07:36:03.575Z,13.00
2023-04-29T07:40:17.076Z,13.00
2023-04-29T07:44:28.653Z,13.10
2023-04-29T07:48:43.633Z,13.20
2023-04-29T07:52:56.030Z,13.40
2023-04-29T07:57:08.169Z,13.40
2023-04-29T08:01:19.192Z,13.70
2023-04-29T08:05:37.404Z,13.90
2023-04-29T08:09:47.203Z,13.90
2023-04-29T08:14:01.677Z,14.00
2023-04-29T08:18:12.107Z,14.00
2023-04-29T08:22:23.968Z,14.10
2023-04-29T08:26:33.241Z,14.20
2023-04-29T08:30:45.250Z,14.50
2023-04-29T08:34:55.971Z,14.70
2023-04-29T08:39:13.256Z,15.10
2023-04-29T08:43:24.573Z,15.10
2023-04-29T08:47:34.734Z,15.20
2023-04-29T08:51:43.837Z,15.40
2023-04-29T08:55:56.763Z,15.70
2023-04-29T09:00:09.053Z,16.00
2023-04-29T09:04:39.441Z,16.40
2023-04-29T09:08:48.800Z,16.80
2023-04-29T09:13:01.926Z,17.10
2023-04-29T09:17:11.054Z,17.20
2023-04-29T09:21:22.810Z,17.10
2023-04-29T09:25:32.402Z,17.20
2023-04-29T09:30:10.035Z,17.30
2023-04-29T09:34:19.308Z,17.50
2023-04-29T09:38:28.325Z,17.80
2023-04-29T09:42:45.056Z,18.10
2023-04-29T09:46:59.333Z,17.80
2023-04-29T09:51:08.453Z,17.90
2023-04-29T09:55:18.876Z,17.90
2023-04-29T09:59:30.350Z,17.80
2023-04-29T10:03:43.088Z,17.80
2023-04-29T10:07:55.038Z,17.70
2023-04-29T10:12:07.989Z,18.00
2023-04-29T10:16:34.734Z,17.70
2023-04-29T10:20:51.375Z,17.80
2023-04-29T10:25:03.919Z,18.00
2023-04-29T10:29:15.778Z,18.00
2023-04-29T10:33:25.417Z,17.90
2023-04-29T10:37:40.477Z,17.70
2023-04-29T10:41:52.716Z,17.50
2023-04-29T10:46:24.948Z,17.80
2023-04-29T10:50:45.708Z,17.80
2023-04-29T10:55:09.352Z,17.90
2023-04-29T10:59:22.292Z,18.10
2023-04-29T11:04:00.751Z,17.90
2023-04-29T11:08:16.723Z,17.40
2023-04-29T11:12:31.435Z,17.60
2023-04-29T11:17:01.942Z,17.80
2023-04-29T11:21:21.916Z,18.10
2023-04-29T11:25:31.105Z,17.90
2023-04-29T11:29:41.833Z,18.00
2023-04-29T11:33:50.959Z,17.90
2023-04-29T11:38:06.259Z,18.10
2023-04-29T11:42:15.312Z,18.30
2023-04-29T11:46:26.005Z,18.50
2023-04-29T11:50:36.690Z,18.50
2023-04-29T11:54:52.631Z,18.70
2023-04-29T11:59:04.209Z,18.90
2023-04-29T12:03:20.577Z,18.90
2023-04-29T12:07:29.900Z,18.80
2023-04-29T12:11:39.802Z,18.90
2023-04-29T12:15:54.982Z,19.20
2023-04-29T12:20:08.494Z,19.30
2023-04-29T12:24:20.060Z,19.40
2023-04-29T12:28:31.060Z,19.10
2023-04-29T12:32:43.399Z,19.10
2023-04-29T12:37:03.058Z,19.20
2023-04-29T12:41:16.860Z,19.40
2023-04-29T12:45:31.472Z,19.50
2023-04-29T12:49:53.518Z,19.50
2023-04-29T12:54:08.050Z,19.20
2023-04-29T12:58:22.206Z,19.10
2023-04-29T13:02:32.696Z,19.30
2023-04-29T13:06:44.268Z,19.10
2023-04-29T13:11:01.684Z,19.00
2023-04-29T13:15:20.397Z,18.90
2023-04-29T13:19:48.083Z,18.70
2023-04-29T13:24:01.707Z,18.70
2023-04-29T13:28:15.013Z,18.90
2023-04-29T13:32:24.934Z,18.90
2023-04-29T13:36:36.679Z,18.80
2023-04-29T13:40:47.251Z,18.40
2023-04-29T13:45:06.896Z,18.20
2023-04-29T13:49:42.282Z,18.30
2023-04-29T13:54:38.256Z,18.50
2023-04-29T13:58:56.262Z,18.60
2023-04-29T14:07:03.265Z,18.60
2023-04-29T14:11:18.731Z,18.60
2023-04-29T14:15:29.083Z,18.60
2023-04-29T14:19:39.819Z,18.30
2023-04-29T14:23:49.087Z,18.10
2023-04-29T14:28:04.331Z,18.10
2023-04-29T14:32:13.598Z,18.10
2023-04-29T14:36:24.688Z,18.30
2023-04-29T14:40:37.980Z,18.20
2023-04-29T14:44:54.777Z,18.10
2023-04-29T14:49:04.613Z,18.00
2023-04-29T14:53:15.535Z,17.90
2023-04-29T14:57:29.891Z,18.00
2023-04-29T15:01:40.161Z,18.20
2023-04-29T15:05:51.697Z,18.20
2023-04-29T15:10:06.889Z,18.10
2023-04-29T15:14:16.785Z,18.20
2023-04-29T15:18:26.755Z,18.20
2023-04-29T15:22:37.687Z,18.40
2023-04-29T15:26:54.737Z,18.20
2023-04-29T15:31:07.251Z,18.00
2023-04-29T15:35:19.242Z,18.10
2023-04-29T15:39:28.464Z,18.20
2023-04-29T15:43:40.535Z,18.30
2023-04-29T15:47:51.919Z,18.10
2023-04-29T15:52:05.941Z,17.90
2023-04-29T15:56:15.153Z,18.10
2023-04-29T16:00:25.936Z,18.10
2023-04-29T16:04:37.025Z,18.30
2023-04-29T16:08:50.496Z,18.40
2023-04-29T16:12:59.580Z,18.20
2023-04-29T16:17:10.307Z,18.00
2023-04-29T16:21:21.892Z,17.80
2023-04-29T16:25:33.363Z,17.70
2023-04-29T16:29:42.520Z,17.40
2023-04-29T16:33:53.279Z,17.20
2023-04-29T16:38:02.657Z,17.20
2023-04-29T16:42:15.128Z,17.00
2023-04-29T16:46:24.590Z,16.70
2023-04-29T16:50:37.097Z,16.40
2023-04-29T16:54:46.538Z,16.40
2023-04-29T16:58:56.014Z,16.30
2023-04-29T17:03:06.928Z,16.20
2023-04-29T17:07:21.064Z,16.20
2023-04-29T17:11:38.434Z,16.30
2023-04-29T17:15:49.394Z,16.40
2023-04-29T17:19:58.847Z,16.40
2023-04-29T17:24:11.432Z,16.40
2023-04-29T17:28:23.053Z,16.20
2023-04-29T17:32:39.642Z,16.20
2023-04-29T17:36:58.047Z,16.10
2023-04-29T17:41:13.252Z,16.10
2023-04-29T17:45:25.839Z,16.10
2023-04-29T17:49:37.936Z,16.10
2023-04-29T17:53:51.601Z,16.00
2023-04-29T17:58:04.430Z,16.00
2023-04-29T18:02:15.623Z,16.00
2023-04-29T18:06:28.694Z,15.90
2023-04-29T18:10:43.042Z,15.90
2023-04-29T18:14:55.964Z,15.80
2023-04-29T18:19:16.685Z,15.80
2023-04-29T18:23:27.627Z,15.60
2023-04-29T18:27:41.196Z,15.60
2023-04-29T18:31:55.876Z,15.60
2023-04-29T18:36:25.705Z,15.50
2023-04-29T18:40:37.301Z,15.50
2023-04-29T18:44:52.015Z,15.40
2023-04-29T18:49:18.124Z,15.40
2023-04-29T18:54:41.345Z,15.40
2023-04-29T18:58:13.225Z,15.30
2023-04-29T19:03:10.313Z,15.30
2023-04-29T19:07:06.972Z,15.30
2023-04-29T19:11:24.159Z,15.20
2023-04-29T19:16:01.025Z,15.20
2023-04-29T19:20:20.680Z,15.10
2023-04-29T19:24:33.492Z,15.00
2023-04-29T19:28:45.683Z,15.00
2023-04-29T19:32:56.233Z,15.00
2023-04-29T19:37:07.213Z,15.00
2023-04-29T19:41:23.310Z,14.90
2023-04-29T19:45:39.015Z,14.90
2023-04-29T19:49:54.889Z,14.90
2023-04-29T19:54:07.541Z,14.80
2023-04-29T19:58:19.858Z,14.90
2023-04-29T20:02:30.444Z,14.80
2023-04-29T20:06:42.003Z,14.80
2023-04-29T20:10:56.964Z,14.70
2023-04-29T20:15:10.836Z,14.70
2023-04-29T20:19:21.883Z,14.70
2023-04-29T20:23:33.237Z,14.70
2023-04-29T20:27:44.476Z,14.70
2023-04-29T20:31:59.322Z,14.70
2023-04-29T20:36:10.617Z,14.60
2023-04-29T20:40:21.124Z,14.60
2023-04-29T20:44:32.240Z,14.50
2023-04-29T20:48:46.617Z,14.50
2023-04-29T20:52:56.670Z,14.50
2023-04-29T20:57:09.104Z,14.40
2023-04-29T21:01:20.946Z,14.30
2023-04-29T21:05:32.939Z,14.30
2023-04-29T21:09:55.376Z,14.20
2023-04-29T21:14:19.746Z,14.10
2023-04-29T21:18:29.865Z,14.10
2023-04-29T21:22:41.518Z,14.10
2023-04-29T21:26:55.480Z,14.10
2023-04-29T21:31:05.840Z,14.10
2023-04-29T21:35:16.563Z,14.20
2023-04-29T21:39:35.568Z,14.10
2023-04-29T21:43:47.694Z,14.10
2023-04-29T21:47:59.970Z,14.10
2023-04-29T21:52:13.012Z,14.10
2023-04-29T21:56:25.340Z,14.00
2023-04-29T22:00:38.456Z,14.00
2023-04-29T22:04:49.121Z,14.00
2023-04-29T22:09:01.009Z,14.00
2023-04-29T22:13:16.734Z,14.10
2023-04-29T22:17:29.763Z,14.00
2023-04-29T22:21:41.675Z,14.00
2023-04-29T22:25:51.938Z,14.00
2023-04-29T22:30:03.749Z,14.00
2023-04-29T22:34:14.657Z,14.00
2023-04-29T22:38:25.472Z,14.00
2023-04-29T22:42:36.385Z,14.00
2023-04-29T22:46:48.404Z,14.00
2023-04-29T22:51:00.696Z,14.00
2023-04-29T22:55:13.028Z,14.00
2023-04-29T22:59:23.964Z,14.00
2023-04-29T23:03:36.394Z,14.00
2023-04-29T23:07:46.933Z,14.00
2023-04-29T23:11:57.567Z,13.90
2023-04-29T23:16:10.644Z,13.90
2023-04-29T23:20:22.554Z,13.90
2023-04-29T23:24:32.585Z,13.90
2023-04-29T23:28:44.948Z,13.90
2023-04-29T23:32:55.444Z,13.90
2023-04-29T23:37:07.423Z,13.80
2023-04-29T23:41:17.669Z,13.80
2023-04-29T23:45:28.948Z,13.70
2023-04-29T23:49:39.282Z,13.60
2023-04-29T23:53:51.979Z,13.70
2023-04-29T23:58:02.771Z,13.60
